Time;durP1;ratioP1;P1;durP2;ratioP2;P2;SDS_P1;SDS_P2;PMS_P1;PMS_P2;Temp;Humidity;BMP_temperature;BMP_pressure;BME280_temperature;BME280_humidity;BME280_pressure;Samples;Min_cycle;Max_cycle;Signal;HPM_P1;HPM_P2
2021/05/25 00:01:03;;;;;;;0.60;0.43;;;21.00;50.60;;;;;;5068540;28;20210;-53
2021/05/25 00:03:30;;;;;;;1.60;0.60;;;21.10;50.70;;;;;;5068033;28;20282;-54
2021/05/25 00:05:57;;;;;;;0.63;0.50;;;21.00;50.70;;;;;;5068605;28;20221;-53
2021/05/25 00:08:23;;;;;;;0.90;0.60;;;21.00;50.60;;;;;;5068291;28;20221;-54
2021/05/25 00:10:50;;;;;;;0.73;0.60;;;21.00;50.70;;;;;;5071941;28;20231;-53
2021/05/25 00:13:17;;;;;;;1.23;0.60;;;21.00;50.70;;;;;;5069689;28;20698;-54
2021/05/25 00:15:44;;;;;;;2.20;0.60;;;21.00;50.80;;;;;;5058829;28;20760;-54
2021/05/25 00:18:11;;;;;;;0.67;0.57;;;21.00;50.80;;;;;;5066216;28;21767;-54
2021/05/25 00:20:37;;;;;;;1.00;0.50;;;21.00;50.90;;;;;;5075356;28;20610;-54
2021/05/25 00:23:04;;;;;;;0.63;0.50;;;21.00;50.80;;;;;;5066441;28;20217;-54
2021/05/25 00:25:32;;;;;;;1.07;0.57;;;20.90;50.80;;;;;;5063750;28;20222;-54
2021/05/25 00:27:59;;;;;;;0.60;0.50;;;21.00;50.80;;;;;;5061276;28;20267;-54
2021/05/25 00:30:26;;;;;;;0.70;0.43;;;20.90;50.90;;;;;;5070331;28;20226;-54
2021/05/25 00:32:53;;;;;;;1.90;0.47;;;20.90;50.80;;;;;;5065624;28;20647;-54
2021/05/25 00:35:20;;;;;;;1.47;0.50;;;20.90;50.90;;;;;;5067915;28;20225;-54
2021/05/25 00:37:46;;;;;;;0.93;0.67;;;20.90;50.90;;;;;;5065791;28;20721;-54
2021/05/25 00:40:14;;;;;;;1.40;0.50;;;20.90;50.90;;;;;;5067402;28;20216;-54
2021/05/25 00:42:45;;;;;;;0.57;0.53;;;20.90;50.90;;;;;;5048122;28;20218;-54
2021/05/25 00:45:14;;;;;;;0.97;0.50;;;20.90;51.00;;;;;;5051096;28;20393;-54
2021/05/25 00:47:41;;;;;;;0.63;0.50;;;20.90;50.90;;;;;;5063073;28;20226;-54
2021/05/25 00:50:23;;;;;;;0.67;0.50;;;20.90;51.00;;;;;;5064176;28;20221;-54
2021/05/25 00:52:54;;;;;;;0.60;0.57;;;20.80;51.00;;;;;;5063187;28;20213;-54
2021/05/25 00:55:24;;;;;;;0.90;0.63;;;20.80;51.10;;;;;;5067071;28;20213;-54
2021/05/25 00:57:53;;;;;;;0.50;0.50;;;20.80;51.00;;;;;;5050136;28;20578;-55
2021/05/25 01:00:25;;;;;;;1.20;0.63;;;20.80;51.00;;;;;;5065708;28;20218;-54
2021/05/25 01:02:52;;;;;;;0.77;0.60;;;20.80;51.00;;;;;;5059154;28;20434;-54
2021/05/25 01:05:19;;;;;;;0.80;0.50;;;20.80;51.10;;;;;;5065619;28;20226;-54
2021/05/25 01:07:46;;;;;;;0.70;0.60;;;20.80;51.10;;;;;;5069767;28;20783;-56
2021/05/25 01:10:15;;;;;;;0.40;0.40;;;20.80;51.10;;;;;;5063558;28;20690;-54
2021/05/25 01:13:04;;;;;;;0.60;0.50;;;20.70;51.00;;;;;;5065404;28;20228;-54
2021/05/25 01:15:32;;;;;;;0.60;0.37;;;20.80;51.10;;;;;;5043347;28;20430;-54
2021/05/25 01:18:00;;;;;;;1.00;0.50;;;20.80;51.10;;;;;;5072502;28;20228;-54
2021/05/25 01:20:29;;;;;;;0.50;0.50;;;20.80;51.10;;;;;;5064973;28;20218;-54
2021/05/25 01:22:57;;;;;;;1.23;0.70;;;20.70;51.10;;;;;;5066883;28;20225;-54
2021/05/25 01:25:25;;;;;;;0.60;0.50;;;20.70;51.10;;;;;;5065396;28;20233;-54
2021/05/25 01:27:58;;;;;;;1.07;0.70;;;20.70;51.10;;;;;;5067289;28;20213;-54
2021/05/25 01:30:28;;;;;;;1.13;0.53;;;20.70;51.10;;;;;;5064428;28;20654;-54
2021/05/25 01:33:06;;;;;;;0.60;0.60;;;20.70;51.20;;;;;;5064003;28;20229;-54
2021/05/25 01:35:34;;;;;;;0.80;0.50;;;20.70;51.20;;;;;;5066680;28;20224;-54
2021/05/25 01:38:05;;;;;;;0.70;0.70;;;20.70;51.20;;;;;;5064107;28;20210;-55
2021/05/25 01:40:32;;;;;;;0.90;0.70;;;20.60;51.20;;;;;;5066111;28;20227;-54
2021/05/25 01:43:00;;;;;;;0.90;0.60;;;20.70;51.20;;;;;;5065905;28;20221;-55
2021/05/25 01:45:29;;;;;;;0.63;0.60;;;20.60;51.20;;;;;;5063097;28;20219;-55
2021/05/25 01:47:58;;;;;;;0.97;0.50;;;20.60;51.20;;;;;;5063720;28;20824;-55
2021/05/25 01:50:27;;;;;;;1.43;0.80;;;20.60;51.20;;;;;;5066460;28;20217;-55
2021/05/25 01:53:12;;;;;;;0.70;0.57;;;20.60;51.20;;;;;;5047286;28;20221;-55
2021/05/25 01:55:58;;;;;;;0.60;0.47;;;20.60;51.30;;;;;;5057245;28;20213;-55
2021/05/25 01:58:32;;;;;;;0.50;0.50;;;20.60;51.30;;;;;;5050041;28;21767;-55
2021/05/25 02:01:04;;;;;;;1.20;0.60;;;20.60;51.30;;;;;;5066908;28;20217;-55
2021/05/25 02:03:31;;;;;;;0.60;0.60;;;20.50;51.20;;;;;;5068163;28;20304;-55
2021/05/25 02:05:58;;;;;;;0.80;0.60;;;20.50;51.20;;;;;;5064032;28;20224;-55
2021/05/25 02:08:25;;;;;;;1.03;0.67;;;20.50;51.20;;;;;;5065977;28;20244;-53
2021/05/25 02:10:55;;;;;;;0.50;0.50;;;20.50;51.20;;;;;;5065081;28;20224;-53
2021/05/25 02:13:27;;;;;;;0.73;0.40;;;20.60;51.40;;;;;;5066048;28;20684;-54
2021/05/25 02:16:00;;;;;;;0.60;0.50;;;20.50;51.30;;;;;;5064649;28;20218;-54
2021/05/25 02:18:29;;;;;;;0.53;0.50;;;20.50;51.30;;;;;;5069936;28;20248;-53
2021/05/25 02:21:00;;;;;;;0.70;0.53;;;20.50;51.30;;;;;;5061521;28;20236;-53
2021/05/25 02:23:37;;;;;;;0.60;0.60;;;20.50;51.30;;;;;;5058035;28;20656;-53
2021/05/25 02:26:05;;;;;;;0.60;0.50;;;20.50;51.30;;;;;;5068032;28;20720;-53
2021/05/25 02:28:32;;;;;;;0.83;0.60;;;20.50;51.40;;;;;;5060978;28;20210;-53
2021/05/25 02:31:00;;;;;;;0.83;0.70;;;20.50;51.40;;;;;;5066527;28;20778;-53
2021/05/25 02:33:32;;;;;;;0.90;0.50;;;20.40;51.30;;;;;;5070446;28;20229;-54
2021/05/25 02:36:00;;;;;;;0.50;0.50;;;20.50;51.40;;;;;;5079366;28;20212;-53
2021/05/25 02:38:29;;;;;;;0.80;0.70;;;20.50;51.40;;;;;;5069774;28;20209;-54
2021/05/25 02:40:56;;;;;;;0.60;0.50;;;20.40;51.40;;;;;;5069220;28;20222;-54
2021/05/25 02:43:25;;;;;;;1.53;0.53;;;20.50;51.40;;;;;;5066084;28;20225;-54
2021/05/25 02:45:54;;;;;;;1.17;0.60;;;20.40;51.30;;;;;;5077460;28;20221;-53
2021/05/25 02:48:21;;;;;;;1.20;0.60;;;20.40;51.40;;;;;;5066965;28;20690;-54
2021/05/25 02:50:49;;;;;;;1.07;0.60;;;20.40;51.40;;;;;;5069948;28;20221;-54
2021/05/25 02:53:16;;;;;;;1.50;0.50;;;20.40;51.30;;;;;;5064999;28;20717;-60
2021/05/25 02:55:43;;;;;;;0.50;0.50;;;20.40;51.30;;;;;;5068612;28;20664;-54
2021/05/25 02:58:10;;;;;;;0.90;0.70;;;20.40;51.40;;;;;;5063567;28;20245;-54
2021/05/25 03:00:40;;;;;;;0.50;0.33;;;20.40;51.30;;;;;;5069138;28;20213;-54
2021/05/25 03:03:08;;;;;;;1.17;0.60;;;20.40;51.30;;;;;;5066401;28;20217;-54
2021/05/25 03:05:35;;;;;;;2.23;0.63;;;20.40;51.30;;;;;;5069786;28;20226;-54
2021/05/25 03:08:07;;;;;;;0.77;0.60;;;20.40;51.30;;;;;;5068515;28;20228;-54
2021/05/25 03:10:36;;;;;;;0.60;0.50;;;20.40;51.40;;;;;;5069070;28;20223;-54
2021/05/25 03:13:18;;;;;;;0.93;0.50;;;20.40;51.40;;;;;;5079760;28;20217;-53
2021/05/25 03:15:47;;;;;;;1.27;0.70;;;20.30;51.30;;;;;;5066842;28;20596;-54
2021/05/25 03:18:15;;;;;;;0.87;0.47;;;20.30;51.40;;;;;;5079985;28;20285;-54
2021/05/25 03:20:45;;;;;;;0.83;0.50;;;20.30;51.40;;;;;;5066470;28;20696;-54
2021/05/25 03:23:12;;;;;;;0.60;0.47;;;20.30;51.40;;;;;;5075839;28;20567;-54
2021/05/25 03:25:39;;;;;;;1.03;0.60;;;20.30;51.40;;;;;;5066196;28;20681;-54
2021/05/25 03:28:07;;;;;;;1.23;0.70;;;20.30;51.50;;;;;;5061330;28;20226;-54
2021/05/25 03:30:37;;;;;;;1.20;0.70;;;20.30;51.50;;;;;;5065027;28;20711;-54
2021/05/25 03:33:04;;;;;;;0.97;0.70;;;20.30;51.50;;;;;;5068859;28;20222;-54
2021/05/25 03:35:31;;;;;;;1.03;0.67;;;20.30;51.50;;;;;;5067176;28;20236;-54
2021/05/25 03:37:58;;;;;;;0.77;0.60;;;20.30;51.40;;;;;;5083753;28;20241;-54
2021/05/25 03:40:25;;;;;;;0.60;0.60;;;20.30;51.50;;;;;;5069223;28;20298;-54
2021/05/25 03:42:53;;;;;;;0.80;0.50;;;20.30;51.50;;;;;;5068386;28;20605;-53
2021/05/25 03:45:23;;;;;;;2.73;0.50;;;20.30;51.50;;;;;;5066123;28;20240;-54
2021/05/25 03:47:50;;;;;;;0.60;0.60;;;20.20;51.40;;;;;;5067808;28;20243;-54
2021/05/25 03:50:17;;;;;;;1.13;0.70;;;20.30;51.50;;;;;;5071021;28;20613;-55
2021/05/25 03:52:48;;;;;;;1.40;0.70;;;20.30;51.50;;;;;;5075213;28;20225;-54
2021/05/25 03:55:31;;;;;;;1.47;0.43;;;20.30;51.50;;;;;;5065961;28;20228;-54
2021/05/25 04:00:45;;;;;;;1.00;0.50;;;20.30;51.50;;;;;;5069017;28;23015;-54
2021/05/25 04:03:27;;;;;;;0.97;0.43;;;20.20;51.50;;;;;;5064790;28;20233;-54
2021/05/25 04:05:54;;;;;;;2.27;0.70;;;20.20;51.50;;;;;;5026965;28;20485;-55
2021/05/25 04:08:21;;;;;;;0.73;0.50;;;20.20;51.50;;;;;;5065836;28;20221;-54
2021/05/25 04:10:48;;;;;;;0.63;0.43;;;20.20;51.50;;;;;;5058692;28;20237;-54
2021/05/25 04:13:16;;;;;;;0.90;0.60;;;20.20;51.50;;;;;;5063328;28;20218;-54
2021/05/25 04:15:47;;;;;;;0.83;0.53;;;20.20;51.50;;;;;;5079996;28;20255;-60
2021/05/25 04:18:14;;;;;;;0.63;0.50;;;20.20;51.50;;;;;;5060294;28;20221;-60
2021/05/25 04:20:41;;;;;;;2.80;0.50;;;20.20;51.50;;;;;;5063601;28;20234;-60
2021/05/25 04:23:08;;;;;;;1.27;0.60;;;20.20;51.50;;;;;;5050967;28;20226;-59
2021/05/25 04:25:35;;;;;;;1.07;0.60;;;20.20;51.40;;;;;;5054484;28;20230;-60
2021/05/25 04:28:02;;;;;;;1.83;0.50;;;20.20;51.40;;;;;;5059426;28;20248;-60
2021/05/25 04:30:29;;;;;;;0.80;0.67;;;20.20;51.40;;;;;;5062034;28;20275;-59
2021/05/25 04:32:56;;;;;;;3.13;0.60;;;20.20;51.50;;;;;;5060785;28;20236;-60
2021/05/25 04:35:23;;;;;;;1.20;0.50;;;20.20;51.50;;;;;;5061469;28;20242;-60
2021/05/25 04:37:51;;;;;;;3.17;0.70;;;20.20;51.50;;;;;;5076049;28;20235;-60
2021/05/25 04:40:19;;;;;;;1.13;0.57;;;20.20;51.60;;;;;;5061672;28;20694;-60
2021/05/25 04:42:46;;;;;;;8.27;1.20;;;20.20;51.30;;;;;;5072916;28;20228;-60
2021/05/25 04:45:13;;;;;;;12.90;3.40;;;20.20;51.40;;;;;;5060904;28;20632;-60
2021/05/25 04:47:40;;;;;;;9.60;2.73;;;20.20;52.10;;;;;;5073159;28;20224;-60
2021/05/25 04:50:10;;;;;;;12.10;2.90;;;20.20;52.10;;;;;;5058374;28;20225;-57
2021/05/25 04:52:37;;;;;;;11.27;3.10;;;20.20;51.90;;;;;;5064328;28;20236;-57
2021/05/25 04:55:07;;;;;;;10.00;2.90;;;20.20;51.90;;;;;;5060501;28;20226;-57
2021/05/25 04:57:34;;;;;;;51.03;11.20;;;20.20;51.90;;;;;;5063412;28;20581;-57
2021/05/25 05:00:03;;;;;;;44.63;12.77;;;20.20;52.10;;;;;;5058672;28;20233;-57
2021/05/25 05:02:30;;;;;;;48.23;13.87;;;20.20;52.60;;;;;;5070647;28;20209;-57
2021/05/25 05:04:57;;;;;;;40.43;11.67;;;20.20;52.50;;;;;;5063781;28;20225;-57
2021/05/25 05:07:24;;;;;;;33.80;11.13;;;20.20;52.20;;;;;;5066598;28;20217;-57
2021/05/25 05:09:51;;;;;;;36.20;9.70;;;20.10;52.20;;;;;;5063400;28;20216;-58
2021/05/25 05:12:18;;;;;;;34.27;10.67;;;20.20;52.10;;;;;;5060275;28;20278;-58
2021/05/25 05:14:44;;;;;;;27.67;9.23;;;20.10;52.10;;;;;;5065054;28;20228;-57
2021/05/25 05:17:11;;;;;;;30.07;8.93;;;20.20;52.10;;;;;;5065555;28;20240;-57
2021/05/25 05:19:38;;;;;;;26.53;7.47;;;20.20;52.10;;;;;;5058267;28;20672;-57
2021/05/25 05:22:05;;;;;;;24.23;8.50;;;20.20;52.00;;;;;;5063096;28;20229;-57
2021/05/25 05:24:32;;;;;;;22.50;7.23;;;20.10;51.90;;;;;;5062251;28;20591;-57
2021/05/25 05:26:58;;;;;;;18.97;7.23;;;20.20;51.90;;;;;;5062676;28;20217;-57
2021/05/25 05:29:25;;;;;;;13.90;5.87;;;20.20;52.10;;;;;;5070737;28;20602;-57
2021/05/25 05:31:52;;;;;;;15.27;5.27;;;20.10;52.80;;;;;;5060260;28;20669;-60
2021/05/25 05:34:19;;;;;;;18.00;6.03;;;20.10;52.40;;;;;;5059426;28;20222;-58
2021/05/25 05:36:45;;;;;;;14.47;5.23;;;20.10;52.10;;;;;;5060042;28;20710;-58
2021/05/25 05:39:12;;;;;;;13.50;5.63;;;20.10;52.10;;;;;;5057539;28;20227;-57
2021/05/25 05:41:39;;;;;;;11.20;4.43;;;20.20;52.10;;;;;;5057795;28;20767;-58
2021/05/25 05:44:06;;;;;;;15.67;4.93;;;20.10;52.00;;;;;;5074431;28;20626;-58
2021/05/25 05:46:33;;;;;;;12.03;4.63;;;20.20;52.00;;;;;;5057553;28;20232;-58
2021/05/25 05:48:59;;;;;;;16.17;4.10;;;20.10;51.80;;;;;;5056275;28;20298;-58
2021/05/25 05:51:26;;;;;;;10.57;4.17;;;20.10;51.80;;;;;;5055136;28;20214;-58
2021/05/25 05:53:56;;;;;;;7.87;3.33;;;20.10;51.70;;;;;;5081449;28;20287;-58
2021/05/25 05:56:24;;;;;;;11.13;4.10;;;20.20;51.80;;;;;;5063863;28;20239;-58
2021/05/25 05:58:51;;;;;;;8.17;3.13;;;20.10;51.70;;;;;;5067047;28;20213;-57
2021/05/25 06:01:18;;;;;;;8.70;3.20;;;20.20;51.70;;;;;;5068436;28;20612;-58
2021/05/25 06:03:46;;;;;;;7.83;2.97;;;20.20;51.90;;;;;;5064835;28;20224;-58
2021/05/25 06:06:13;;;;;;;8.33;3.10;;;20.20;51.90;;;;;;5072152;28;21468;-58
2021/05/25 06:08:41;;;;;;;6.47;3.03;;;20.20;51.90;;;;;;5072908;28;20248;-58
2021/05/25 06:11:09;;;;;;;6.77;2.63;;;20.20;51.80;;;;;;5061002;28;20237;-59
2021/05/25 06:13:36;;;;;;;5.47;2.00;;;20.10;51.70;;;;;;5066109;28;20295;-60
2021/05/25 06:16:03;;;;;;;4.87;2.20;;;20.10;51.60;;;;;;5049045;28;20226;-59
2021/05/25 06:18:32;;;;;;;8.73;2.50;;;20.20;51.70;;;;;;5050206;28;20310;-59
2021/05/25 06:21:01;;;;;;;4.80;2.30;;;20.10;51.60;;;;;;5063580;28;20221;-59
2021/05/25 06:23:29;;;;;;;5.80;2.10;;;20.10;51.50;;;;;;5064894;28;20256;-59
2021/05/25 06:25:58;;;;;;;6.13;2.30;;;20.10;51.50;;;;;;5063420;28;20229;-59
2021/05/25 06:28:30;;;;;;;5.63;2.13;;;20.10;51.50;;;;;;5063544;28;20232;-59
2021/05/25 06:30:57;;;;;;;3.73;1.97;;;20.10;51.40;;;;;;5064427;28;20225;-60
2021/05/25 06:33:25;;;;;;;3.37;1.70;;;20.10;51.40;;;;;;5062997;28;20228;-59
2021/05/25 06:35:52;;;;;;;3.47;1.70;;;20.10;51.30;;;;;;5059030;28;20233;-59
2021/05/25 06:38:18;;;;;;;3.70;1.77;;;20.10;51.40;;;;;;5062042;28;20232;-60
2021/05/25 06:40:46;;;;;;;3.37;1.73;;;20.10;51.40;;;;;;5063089;28;20614;-59
2021/05/25 06:43:13;;;;;;;3.57;1.50;;;20.10;51.50;;;;;;5060820;28;20266;-59
2021/05/25 06:45:41;;;;;;;2.93;1.80;;;20.10;51.40;;;;;;5076525;28;20233;-59
2021/05/25 06:48:08;;;;;;;2.87;1.63;;;20.10;51.30;;;;;;5062972;28;20253;-59
2021/05/25 06:50:36;;;;;;;3.00;1.20;;;20.10;51.30;;;;;;5068363;28;20217;-59
2021/05/25 06:53:04;;;;;;;3.40;1.63;;;20.10;51.30;;;;;;5059076;28;21142;-59
2021/05/25 06:55:31;;;;;;;4.43;1.50;;;20.10;51.30;;;;;;5062443;28;20230;-59
2021/05/25 06:57:58;;;;;;;2.43;1.40;;;20.10;51.40;;;;;;5063707;28;20598;-59
2021/05/25 07:00:25;;;;;;;2.27;1.17;;;20.10;51.40;;;;;;5059242;28;20232;-54
2021/05/25 07:03:02;;;;;;;3.93;1.40;;;20.10;51.40;;;;;;5063616;28;20222;-54
2021/05/25 07:05:29;;;;;;;2.77;1.40;;;20.10;51.40;;;;;;5068052;28;20210;-54
2021/05/25 07:07:56;;;;;;;1.43;1.03;;;20.10;51.50;;;;;;5062964;28;20225;-54
2021/05/25 07:10:23;;;;;;;2.60;1.10;;;20.10;51.50;;;;;;5064104;28;20214;-54
2021/05/25 07:12:50;;;;;;;2.67;1.40;;;20.10;51.30;;;;;;5062451;28;20236;-54
2021/05/25 07:15:17;;;;;;;2.20;1.20;;;20.10;51.40;;;;;;5068856;28;20225;-57
2021/05/25 07:17:45;;;;;;;3.10;1.07;;;20.10;51.30;;;;;;5064952;28;20217;-54
2021/05/25 07:20:12;;;;;;;3.73;1.33;;;20.20;51.30;;;;;;5067886;28;20261;-54
2021/05/25 07:22:39;;;;;;;1.67;1.00;;;20.10;51.30;;;;;;5059824;28;20233;-54
2021/05/25 07:25:07;;;;;;;2.27;1.00;;;20.10;51.20;;;;;;5062424;28;20216;-54
2021/05/25 07:27:34;;;;;;;3.23;1.00;;;20.20;51.90;;;;;;5068637;28;20225;-54
2021/05/25 07:30:02;;;;;;;2.07;1.10;;;20.10;51.20;;;;;;5069780;28;20229;-53
2021/05/25 07:32:29;;;;;;;2.03;1.10;;;20.20;51.20;;;;;;5072133;28;20213;-54
2021/05/25 07:34:56;;;;;;;1.70;1.13;;;20.20;51.20;;;;;;5066017;28;20229;-54
2021/05/25 07:37:23;;;;;;;3.93;1.17;;;20.20;51.20;;;;;;5062995;28;20218;-54
2021/05/25 07:39:49;;;;;;;1.40;1.00;;;20.20;51.20;;;;;;5067800;28;20688;-55
2021/05/25 07:42:16;;;;;;;1.90;1.13;;;20.20;51.20;;;;;;5069762;28;20708;-58
2021/05/25 07:44:43;;;;;;;2.13;0.87;;;20.10;51.10;;;;;;5068927;28;20232;-54
2021/05/25 07:47:10;;;;;;;2.33;0.97;;;20.20;51.20;;;;;;5071809;28;20296;-54
2021/05/25 07:49:37;;;;;;;2.03;1.00;;;20.20;51.20;;;;;;5068814;28;20230;-53
2021/05/25 07:52:04;;;;;;;1.63;1.10;;;20.20;51.10;;;;;;5059733;28;20253;-54
2021/05/25 07:54:31;;;;;;;3.10;0.90;;;20.20;51.10;;;;;;5059053;28;20222;-54
2021/05/25 07:56:58;;;;;;;0.97;0.87;;;20.20;51.10;;;;;;5066569;28;20221;-61
2021/05/25 07:59:25;;;;;;;1.93;0.90;;;20.20;51.10;;;;;;5072682;28;20220;-61
2021/05/25 08:01:53;;;;;;;1.50;1.00;;;20.20;51.10;;;;;;5072273;28;20221;-62
2021/05/25 08:04:20;;;;;;;1.93;0.90;;;20.20;51.10;;;;;;5072566;28;20232;-61
2021/05/25 08:06:47;;;;;;;0.80;0.77;;;20.20;51.10;;;;;;5072433;28;20252;-61
2021/05/25 08:09:14;;;;;;;1.97;0.90;;;20.20;51.10;;;;;;5072716;28;20272;-61
2021/05/25 08:11:41;;;;;;;0.97;0.80;;;20.20;51.10;;;;;;5071658;28;20221;-61
2021/05/25 08:14:09;;;;;;;1.33;0.80;;;20.20;51.10;;;;;;5071291;28;20578;-61
2021/05/25 08:16:38;;;;;;;1.27;0.77;;;20.20;51.10;;;;;;5071244;28;20712;-62
2021/05/25 08:19:27;;;;;;;1.40;0.80;;;20.20;51.10;;;;;;5058484;28;20213;-62
2021/05/25 08:21:54;;;;;;;1.53;0.83;;;20.20;51.10;;;;;;5060035;28;20663;-61
2021/05/25 08:24:42;;;;;;;2.00;0.87;;;20.30;51.30;;;;;;5066209;28;20287;-62
2021/05/25 08:27:09;;;;;;;1.10;0.90;;;20.20;51.30;;;;;;5066631;28;20226;-62
2021/05/25 08:29:55;;;;;;;1.33;1.00;;;20.30;51.30;;;;;;5054146;28;20287;-62
2021/05/25 08:32:22;;;;;;;1.20;0.87;;;20.20;51.30;;;;;;5068112;28;20225;-62
2021/05/25 08:34:49;;;;;;;1.40;1.03;;;20.30;51.30;;;;;;5066283;28;20229;-62
2021/05/25 08:37:16;;;;;;;1.90;0.80;;;20.20;51.20;;;;;;5071757;28;20236;-62
2021/05/25 08:39:43;;;;;;;1.27;0.90;;;20.30;51.30;;;;;;5070489;28;20221;-61
2021/05/25 08:45:52;;;;;;;0.80;0.60;;;20.30;51.30;;;;;;5029496;28;20551;-59
2021/05/25 08:48:19;;;;;;;1.40;0.90;;;20.20;51.10;;;;;;5058484;28;20246;-60
2021/05/25 08:50:56;;;;;;;1.10;0.73;;;20.30;51.10;;;;;;5072993;28;20305;-58
2021/05/25 08:53:23;;;;;;;0.97;0.67;;;20.30;51.10;;;;;;5062063;28;20315;-58
2021/05/25 08:55:51;;;;;;;0.90;0.80;;;20.30;51.20;;;;;;5060237;28;20225;-61
2021/05/25 08:58:19;;;;;;;0.90;0.70;;;20.30;51.10;;;;;;5071402;28;20622;-60
2021/05/25 09:00:46;;;;;;;0.50;0.43;;;20.30;51.20;;;;;;5072268;28;20580;-61
2021/05/25 09:03:17;;;;;;;0.97;0.60;;;20.30;51.30;;;;;;5071259;28;20217;-61
2021/05/25 09:06:06;;;;;;;1.03;0.73;;;20.30;51.30;;;;;;5071414;28;20848;-61
2021/05/25 09:08:35;;;;;;;1.47;0.60;;;20.30;51.40;;;;;;5042834;28;20239;-61
2021/05/25 09:11:07;;;;;;;0.90;0.63;;;20.30;52.00;;;;;;5065323;28;20213;-54
2021/05/25 09:13:35;;;;;;;1.47;0.80;;;20.30;51.40;;;;;;5064285;28;20217;-54
2021/05/25 09:16:03;;;;;;;1.43;0.90;;;20.30;51.30;;;;;;5066158;28;20217;-54
2021/05/25 09:18:33;;;;;;;0.93;0.70;;;20.30;51.40;;;;;;5061022;28;20229;-54
2021/05/25 09:21:02;;;;;;;0.90;0.60;;;20.30;51.30;;;;;;5065105;28;20221;-54
2021/05/25 09:23:33;;;;;;;0.80;0.50;;;20.30;51.30;;;;;;5063893;28;20236;-54
2021/05/25 09:26:12;;;;;;;0.70;0.67;;;20.30;51.30;;;;;;5067157;28;20229;-54
2021/05/25 09:28:58;;;;;;;1.23;0.70;;;20.30;51.30;;;;;;5075939;28;20228;-53
2021/05/25 09:31:35;;;;;;;1.60;0.60;;;20.30;51.40;;;;;;5049191;28;21342;-54
2021/05/25 09:34:16;;;;;;;1.30;0.60;;;20.30;51.40;;;;;;5067074;28;20225;-54
2021/05/25 09:37:11;;;;;;;0.97;0.60;;;20.30;51.40;;;;;;5066280;28;20233;-53
2021/05/25 09:39:41;;;;;;;0.93;0.67;;;20.30;51.50;;;;;;5057982;28;20392;-53
2021/05/25 09:42:10;;;;;;;0.90;0.63;;;20.30;51.50;;;;;;5059598;28;20854;-53
2021/05/25 09:44:55;;;;;;;1.67;0.80;;;20.30;51.40;;;;;;5062814;28;20233;-53
2021/05/25 09:47:41;;;;;;;1.20;0.60;;;20.30;51.40;;;;;;5027321;28;20240;-53
2021/05/25 09:50:13;;;;;;;1.73;0.80;;;20.30;51.50;;;;;;5064579;28;20225;-54
2021/05/25 09:53:11;;;;;;;0.80;0.70;;;20.30;51.50;;;;;;5041054;28;20225;-54
2021/05/25 09:55:58;;;;;;;0.73;0.50;;;20.30;51.40;;;;;;5050760;28;20590;-55
2021/05/25 09:58:39;;;;;;;1.80;0.50;;;20.30;51.60;;;;;;5052529;28;20292;-54
2021/05/25 10:01:08;;;;;;;1.20;0.70;;;20.30;51.50;;;;;;5060314;28;20225;-58
2021/05/25 10:03:55;;;;;;;0.60;0.60;;;20.30;51.50;;;;;;5055730;28;20261;-58
2021/05/25 10:06:21;;;;;;;0.83;0.70;;;20.30;51.60;;;;;;5057432;28;21063;-59
2021/05/25 10:08:49;;;;;;;1.03;0.70;;;20.30;51.50;;;;;;5059815;28;20221;-58
2021/05/25 10:11:17;;;;;;;0.60;0.50;;;20.30;51.50;;;;;;5040133;28;20226;-61
2021/05/25 10:19:59;;;;;;;0.87;0.50;;;20.30;51.50;;;;;;5050785;28;20272;-60
2021/05/25 10:26:10;;;;;;;0.97;0.70;;;20.30;51.40;;;;;;5024485;28;21640;-60
2021/05/25 10:28:40;;;;;;;0.80;0.50;;;20.30;51.40;;;;;;5050371;28;20303;-60
2021/05/25 10:31:30;;;;;;;0.70;0.60;;;20.30;51.30;;;;;;5055443;28;20229;-59
2021/05/25 10:34:13;;;;;;;0.87;0.50;;;20.30;51.30;;;;;;5039997;28;20231;-58
2021/05/25 10:36:48;;;;;;;1.07;0.70;;;20.30;51.30;;;;;;5039856;28;20259;-54
2021/05/25 10:39:41;;;;;;;2.03;0.60;;;20.30;51.40;;;;;;5069714;28;20234;-54
2021/05/25 10:42:21;;;;;;;1.00;0.60;;;20.30;51.40;;;;;;5059526;28;20681;-54
2021/05/25 10:45:01;;;;;;;1.03;0.70;;;20.30;51.40;;;;;;5065761;28;20232;-55
2021/05/25 10:47:49;;;;;;;0.80;0.60;;;20.40;51.50;;;;;;5065145;28;20314;-58
2021/05/25 10:50:31;;;;;;;1.17;0.97;;;20.30;51.40;;;;;;5044122;28;20263;-58
2021/05/25 10:53:01;;;;;;;0.80;0.60;;;20.30;51.40;;;;;;5022660;28;20221;-58
2021/05/25 10:55:39;;;;;;;1.10;0.60;;;20.40;51.40;;;;;;5061909;28;20236;-58
2021/05/25 10:58:36;;;;;;;1.30;0.80;;;20.30;51.50;;;;;;5063988;28;20275;-58
2021/05/25 11:01:08;;;;;;;1.20;0.63;;;20.40;51.50;;;;;;5021452;28;20222;-58
2021/05/25 11:03:35;;;;;;;0.67;0.60;;;20.30;51.50;;;;;;5047185;28;20232;-58
2021/05/25 11:06:06;;;;;;;1.37;0.60;;;20.30;51.40;;;;;;5067766;28;20359;-58
2021/05/25 11:08:40;;;;;;;1.87;0.80;;;20.30;51.60;;;;;;5061017;28;20221;-58
2021/05/25 11:11:15;;;;;;;1.17;0.63;;;20.40;51.60;;;;;;5063503;28;20258;-58
2021/05/25 11:13:53;;;;;;;1.07;0.73;;;20.30;51.60;;;;;;5060674;28;20622;-58
2021/05/25 11:16:31;;;;;;;0.90;0.77;;;20.30;51.60;;;;;;5064782;28;20224;-59
2021/05/25 11:19:06;;;;;;;0.73;0.63;;;20.40;51.70;;;;;;5061161;28;20229;-58
2021/05/25 11:22:02;;;;;;;1.13;0.93;;;20.30;51.70;;;;;;5065266;28;20737;-58
2021/05/25 11:24:53;;;;;;;2.00;0.80;;;20.30;51.70;;;;;;5046616;28;21274;-59
2021/05/25 11:27:43;;;;;;;1.43;0.80;;;20.30;51.70;;;;;;5062486;28;20239;-59
2021/05/25 11:30:23;;;;;;;1.10;0.80;;;20.30;51.70;;;;;;5066507;28;20693;-60
2021/05/25 11:36:31;;;;;;;1.10;0.60;;;20.40;51.80;;;;;;5031584;28;21628;-60
2021/05/25 11:42:39;;;;;;;1.40;0.70;;;20.30;51.80;;;;;;5049550;28;20221;-60
2021/05/25 11:45:08;;;;;;;0.97;0.70;;;20.40;51.80;;;;;;5072985;28;20232;-61
2021/05/25 11:47:37;;;;;;;1.50;0.80;;;20.30;51.80;;;;;;5072626;28;20800;-60
2021/05/25 11:50:05;;;;;;;0.73;0.50;;;20.40;51.90;;;;;;5072207;28;20229;-56
2021/05/25 11:52:52;;;;;;;0.80;0.63;;;20.30;51.80;;;;;;5068448;28;22419;-55
2021/05/25 11:55:21;;;;;;;1.23;0.70;;;20.40;51.80;;;;;;5069750;28;20687;-55
2021/05/25 11:57:49;;;;;;;1.17;0.60;;;20.30;51.80;;;;;;5068745;28;20233;-57
2021/05/25 12:00:20;;;;;;;1.50;0.67;;;20.40;51.80;;;;;;5053971;28;20236;-54
2021/05/25 12:03:32;;;;;;;1.07;0.73;;;20.30;51.80;;;;;;5066589;28;20233;-54
2021/05/25 12:05:59;;;;;;;1.53;0.70;;;20.40;51.90;;;;;;5026651;28;21205;-54
2021/05/25 12:08:25;;;;;;;0.60;0.53;;;20.40;51.80;;;;;;5065549;28;20222;-54
2021/05/25 12:10:52;;;;;;;1.20;0.80;;;20.40;51.80;;;;;;5062074;28;20224;-60
2021/05/25 12:13:20;;;;;;;1.50;0.60;;;20.40;51.90;;;;;;5062626;28;20251;-60
2021/05/25 12:15:50;;;;;;;0.93;0.60;;;20.40;51.90;;;;;;5062575;28;20270;-59
2021/05/25 12:18:20;;;;;;;1.33;0.70;;;20.40;51.90;;;;;;5064350;28;20217;-60
2021/05/25 12:20:51;;;;;;;1.33;0.63;;;20.40;51.80;;;;;;5058782;28;20931;-61
2021/05/25 12:23:27;;;;;;;0.90;0.60;;;20.40;51.90;;;;;;5074349;28;20226;-60
2021/05/25 12:26:05;;;;;;;2.00;0.80;;;20.40;51.90;;;;;;5062207;28;21497;-60
2021/05/25 12:28:34;;;;;;;1.83;0.70;;;20.40;51.80;;;;;;5048604;28;20229;-60
2021/05/25 12:31:02;;;;;;;2.27;0.90;;;20.40;51.80;;;;;;5058702;28;20214;-60
2021/05/25 12:33:32;;;;;;;0.70;0.50;;;20.40;51.90;;;;;;5064514;28;20253;-60
2021/05/25 12:36:21;;;;;;;1.57;0.93;;;20.40;51.90;;;;;;5061147;28;20793;-58
2021/05/25 12:38:54;;;;;;;1.10;0.80;;;20.40;51.90;;;;;;5056333;28;20489;-59
2021/05/25 12:41:21;;;;;;;0.80;0.60;;;20.50;52.00;;;;;;5065296;28;20699;-58
2021/05/25 12:43:48;;;;;;;1.30;0.50;;;20.40;51.90;;;;;;5069724;28;20701;-59
2021/05/25 12:46:15;;;;;;;1.40;0.70;;;20.40;51.90;;;;;;5059252;28;20746;-58
2021/05/25 12:48:43;;;;;;;0.63;0.50;;;20.40;52.00;;;;;;5063517;28;20225;-58
2021/05/25 12:51:12;;;;;;;0.73;0.70;;;20.40;51.90;;;;;;5059679;28;20217;-58
2021/05/25 12:53:56;;;;;;;1.10;0.60;;;20.50;51.90;;;;;;5053706;28;20221;-58
2021/05/25 12:56:23;;;;;;;1.13;0.60;;;20.40;51.90;;;;;;5048950;28;20225;-58
2021/05/25 12:58:57;;;;;;;1.67;0.67;;;20.40;52.50;;;;;;5066423;28;20233;-58
2021/05/25 13:01:32;;;;;;;1.03;0.70;;;20.40;51.90;;;;;;5066836;28;20213;-60
2021/05/25 13:04:02;;;;;;;0.90;0.70;;;20.50;52.00;;;;;;5060839;28;20217;-60
2021/05/25 13:06:33;;;;;;;1.60;0.70;;;20.50;52.00;;;;;;5064626;28;20213;-59
2021/05/25 13:09:15;;;;;;;1.20;0.60;;;20.40;51.90;;;;;;5058255;28;20689;-59
2021/05/25 13:12:02;;;;;;;0.97;0.63;;;20.50;52.10;;;;;;5062603;28;20221;-59
2021/05/25 13:14:33;;;;;;;1.07;0.57;;;20.50;52.00;;;;;;5044272;28;20751;-60
2021/05/25 13:17:02;;;;;;;3.50;0.60;;;20.40;52.00;;;;;;5056120;28;20217;-54
2021/05/25 13:19:36;;;;;;;1.03;0.70;;;20.50;52.10;;;;;;5068404;28;20243;-54
2021/05/25 13:22:08;;;;;;;0.70;0.50;;;20.50;52.00;;;;;;5072716;28;20221;-60
2021/05/25 13:24:37;;;;;;;1.03;0.60;;;20.50;52.10;;;;;;5057658;28;20243;-59
2021/05/25 13:27:38;;;;;;;0.60;0.47;;;20.50;52.00;;;;;;5063062;28;20246;-59